ADDS METAR Data INFO
IDs: Format: Raw Decoded Include TAF

Data at: 0033 UTC 23 Oct 2017

KOJC 222353Z 13003KT 10SM CLR 12/06 A3010 RMK AO2 SLP191 T01220056 10183 20117 56002
KOJC 222253Z 00000KT 10SM CLR 17/02 A3010 RMK AO2 SLP189 T01720022
KOJC 222153Z 00000KT 10SM CLR 17/03 A3010 RMK AO2 SLP190 T01720028
KOJC 222053Z 01006KT 10SM CLR 18/02 A3010 RMK AO2 SLP191 T01830017 56011
KOJC 221953Z 33010KT 10SM CLR 17/03 A3011 RMK AO2 SLP193 T01670028
KOJC 221853Z 35009KT 10SM CLR 16/05 A3011 RMK AO2 SLP194 T01610050
KOJC 221753Z 32007KT 10SM CLR 16/07 A3014 RMK AO2 SLP203 T01560067 10156 20083 50010
KOJC 221653Z 31008KT 10SM CLR 13/07 A3015 RMK AO2 SLP207 T01330067
KOJC 221553Z 32008KT 10SM CLR 12/07 A3013 RMK AO2 SLP201 T01220072
KOJC 221453Z 31007KT 10SM CLR 11/07 A3011 RMK AO2 SLP193 T01060072 53014
KOJC 221353Z 31010KT 10SM CLR 09/08 A3010 RMK AO2 SLP190 T00890078
KOJC 221253Z 33005KT 10SM CLR 08/08 A3007 RMK AO2 SLP180 T00830083
KOJC 221153Z 34006KT 10SM CLR 09/08 A3006 RMK AO2 SLP176 60049 70179 T00890083 10106 20089 51032
KOJC 221053Z AUTO 31006KT 10SM FEW080 09/08 A3006 RMK AO2 SLP175 T00890083
KOJC 220953Z AUTO 02006KT 10SM BKN047 OVC065 09/08 A3002 RMK AO2 RAE34 TSB0859E14 SLP160 P0003 T00940083
KOJC 220920Z AUTO 01008KT 10SM -RA SCT047 OVC090 09/08 A2998 RMK AO2 TSB0859E14 PRESRR P0002 T00940083
KOJC 220905Z AUTO 03012KT 10SM -TSRA OVC085 09/08 A2996 RMK AO2 LTG DSNT E AND SE TSB0859 P0001 T00890083
KOJC 220853Z AUTO 02011KT 10SM -RA OVC080 09/09 A2997 RMK AO2 LTG DSNT S TSB33E48 SLP142 P0010 60046 T00940089 56011
KOJC 220839Z AUTO 02011KT 8SM -TSRA OVC075 09/09 A2998 RMK AO2 LTG DSNT SE AND S TSB33 P0009 T00940089
KOJC 220753Z AUTO 03008KT 7SM VCTS RA OVC085 09/09 A2998 RMK AO2 LTG DSNT E AND S TSB03E18 SLP147 P0013 T00940089
KOJC 220724Z AUTO 01011KT 10SM -RA OVC090 10/09 A2997 RMK AO2 LTG DSNT ALQDS TSB03E18 P0006 T01000089
KOJC 220709Z AUTO 36011KT 7SM TSRA OVC090 10/09 A2998 RMK AO2 LTG DSNT NE AND E AND SW TSB03 P0003 T01000089
KOJC 220653Z AUTO 01015G19KT 8SM RA FEW070 OVC085 10/09 A2997 RMK AO2 LTG DSNT ALQDS SLP143 P0023 T01000094
KOJC 220625Z AUTO 36013KT 5SM +RA BR SCT060 OVC070 10/10 A2996 RMK AO2 LTG DSNT NE AND SW AND W P0014 T01000100
KOJC 220610Z AUTO 36013KT 5SM VCTS +RA BR FEW026 BKN060 OVC070 11/10 A2996 RMK AO2 LTG DSNT ALQDS PRESFR P0007 T01060100
KOJC 220553Z AUTO 35008KT 5SM +RA BR SCT024 BKN041 OVC085 11/10 A3000 RMK AO2 LTG DSNT S AND SW SLP153 P0018 60129 T01060100 10217 20106 402390106 53013
KOJC 220542Z AUTO 33009G19KT 5SM +RA BR SCT021 BKN039 OVC085 11/10 A2999 RMK AO2 LTG DSNT E AND SW PRESRR P0014 T01060100
KOJC 220510Z AUTO 33016G22KT 6SM VCTS RA BR SCT009 BKN015 OVC019 11/11 A2995 RMK AO2 LTG DSNT N AND S AND SW P0004 T01110106
KOJC 220501Z AUTO 33012G19KT 9SM RA BKN009 BKN015 OVC029 11/11 A2995 RMK AO2 LTG DSNT N AND S AND SW CIG 006V011 P0001 T01110111
KOJC 220453Z AUTO 32012G18KT 8SM VCTS -RA BKN009 OVC029 12/11 A2996 RMK AO2 LTG DSNT S TSB15E30 CIG 006V011 SLP141 P0017 T01170111
KOJC 220449Z AUTO 34010KT 8SM VCTS RA BKN009 BKN029 12/11 A2997 RMK AO2 LTG DSNT S AND W TSB15E30 P0017
KOJC 220440Z AUTO 35012G21KT 9SM VCTS -RA FEW011 BKN029 OVC080 12/11 A2996 RMK AO2 LTG DSNT S-W TSB15E30 P0015 T01170111
KOJC 220432Z AUTO 35016G21KT 7SM RA SCT011 BKN031 OVC080 12/11 A2994 RMK AO2 LTG DSNT ALQDS TSB15E30 P0013 T01170111
KOJC 220430Z AUTO 34014G20KT 6SM VCTS RA BR SCT011 BKN027 OVC085 12/11 A2994 RMK AO2 LTG DSNT ALQDS TSB15E30 P0013 T01170111
KOJC 220415Z AUTO 34015G21KT 5SM +TSRA BR SCT009 BKN013 OVC080 12/12 A2994 RMK AO2 LTG DSNT ALQDS TSB15 P0008 T01170117
KOJC 220353Z AUTO 33009KT 6SM VCTS RA BR OVC009 12/12 A2996 RMK AO2 LTG DSNT ALQDS TSB25E40 CIG 006V012 SLP140 P0011 T01220122
KOJC 220351Z AUTO 34009KT 6SM VCTS RA BR BKN009 OVC080 12/12 A2996 RMK AO2 LTG DSNT ALQDS TSB25E40 CIG 006V012 P0010
KOJC 220340Z AUTO 35008G17KT 7SM VCTS RA BKN010 BKN033 OVC080 12/12 A2994 RMK AO2 LTG DSNT ALQDS TSB25E40 CIG 007V015 PRESRR P0008 T01220122
KOJC 220327Z AUTO 36013KT 8SM -TSRA FEW010 SCT033 OVC080 13/12 A2991 RMK AO2 LTG DSNT ALQDS TSB25 P0005 T01280122
KOJC 220306Z AUTO 34015G21KT 8SM VCTS -RA SCT008 SCT080 OVC090 13/12 A2991 RMK AO2 LTG DSNT ALQDS PRESRR P0002 T01280122
KOJC 220301Z AUTO 34015G21KT 8SM -RA BKN008 OVC090 13/13 A2990 RMK AO2 LTG DSNT ALQDS CIG 005V011 P0001 T01330128
KOJC 220253Z AUTO 34015G22KT 10SM -RA SCT007 BKN034 OVC090 14/14 A2989 RMK AO2 LTG DSNT ALQDS TSE41 SLP116 P0054 60083 T01390139 51025
KOJC 220246Z AUTO 35016G22KT 10SM VCTS -RA FEW005 BKN030 OVC095 14/14 A2988 RMK AO2 LTG DSNT ALQDS TSE41 P0054 T01390139
KOJC 220240Z AUTO 34014G18KT 7SM -TSRA FEW005 BKN026 OVC090 14/14 A2989 RMK AO2 LTG DSNT ALQDS P0054 T01390139
KOJC 220230Z AUTO 32013KT 2SM +TSRA BR SCT005 OVC026 14/14 A2990 RMK AO2 LTG DSNT ALQDS P0052 T01440144
KOJC 220223Z AUTO 32009G18KT 1SM +TSRA BR FEW005 BKN022 OVC055 14/14 A2990 RMK AO2 LTG DSNT ALQDS P0046 T01440144
KOJC 220215Z AUTO 30013G20KT 1 1/2SM +TSRA BR SCT005 BKN018 OVC055 15/14 A2990 RMK AO2 LTG DSNT ALQDS P0027 T01500144
KOJC 220210Z AUTO 30014G20KT 3SM TSRA BR SCT005 BKN029 OVC055 15/15 A2990 RMK AO2 LTG DSNT ALQDS PRESRR P0011 T01500150
KOJC 220202Z AUTO 33009G16KT 2 1/2SM +TSRA BR SCT005 BKN031 OVC055 15/15 A2988 RMK AO2 LTG DSNT ALQDS P0006 T01500150
KOJC 220159Z AUTO 33009KT 3SM +TSRA BR SCT006 BKN012 OVC055 15/15 A2987 RMK AO2 LTG DSNT ALQDS P0004 T01500150
KOJC 220153Z 29008KT 2 1/2SM +TSRA BR SCT006 BKN028 OVC055 15/15 A2988 RMK AO2 VIS 1 1/4V4 LTG DSNT ALQDS RAB24 TSB17 PRESRR SLP112 P0029 T01500150
KOJC 220134Z 04010G19KT 360V070 2SM +TSRA BR BKN006 BKN019 OVC028 15/15 A2985 RMK AO2 LTG DSNT ALQDS RAB24 TSB17 P0012 T01500150
KOJC 220120Z 30013G19KT 10SM TS FEW009 BKN028 OVC033 17/14 A2986 RMK AO2 LTG DSNT SW-N TSB17 T01670144
KOJC 220102Z 29010G20KT 10SM VCTS BKN028 OVC034 17/14 A2985 RMK AO2 LTG DSNT SW-N PRESRR T01720139
KOJC 220053Z 31010KT 10SM SCT026 OVC034 18/14 A2984 RMK AO2 LTG DSNT SW-N SLP098 T01830144
KOJC 212353Z 16006KT 10SM FEW040 SCT060 OVC085 22/18 A2981 RMK AO2 LTG DSNT SW-N RAB27E39 SLP088 P0001 60001 T02170183 10239 20217 53001
KOJC 212253Z 16010KT 10SM BKN039 BKN048 OVC070 22/18 A2980 RMK AO2 RAB10E21 SLP083 P0000 T02220183
KOJC 212153Z 19008KT 10SM FEW035 SCT042 OVC070 23/18 A2981 RMK AO2 SLP085 T02330178
KOJC 212053Z 19011G17KT 10SM SCT039 OVC065 23/18 A2981 RMK AO2 SLP086 T02330178 56007
KOJC 211953Z 18014G21KT 10SM FEW030 BKN035 OVC045 23/18 A2982 RMK AO2 PK WND 20027/1908 SLP089 T02280178
KOJC 211853Z 19016G25KT 10SM FEW029 BKN045 OVC049 23/17 A2981 RMK AO2 PK WND 18028/1755 SLP087 T02280172
KOJC 211753Z 19021G28KT 10SM FEW023 SCT032 SCT050 23/18 A2983 RMK AO2 PK WND 18031/1741 SLP094 T02280178 10228 20172 58008
KOJC 211653Z 18019G26KT 10SM BKN020 OVC026 20/17 A2984 RMK AO2 PK WND 19027/1631 SLP099 T02000172
KOJC 211553Z 18016G23KT 10SM OVC017 19/16 A2985 RMK AO2 PK WND 17026/1527 SLP101 T01890161
KOJC 211453Z 18016G24KT 10SM OVC016 18/16 A2986 RMK AO2 SLP103 T01830156 53001
KOJC 211353Z 18017G24KT 10SM OVC018 17/14 A2985 RMK AO2 PK WND 19027/1309 SLP102 T01720144
KOJC 211253Z 17015G23KT 10SM OVC019 17/14 A2984 RMK AO2 SLP096 T01720139